Time;durP1;ratioP1;P1;durP2;ratioP2;P2;SDS_P1;SDS_P2;PMS_P1;PMS_P2;Temp;Humidity;BMP_temperature;BMP_pressure;BME280_temperature;BME280_humidity;BME280_pressure;Samples;Min_cycle;Max_cycle;Signal;HPM_P1;HPM_P2
2022/10/30 00:01:22;;;;;;;;;;;13.50;87.90;;;;;;5054114;28;19935;-88
2022/10/30 00:03:48;;;;;;;;;;;13.40;87.90;;;;;;5054027;28;19949;-88
2022/10/30 00:06:13;;;;;;;;;;;13.40;88.00;;;;;;5053954;28;20473;-88
2022/10/30 00:08:39;;;;;;;;;;;13.50;88.10;;;;;;5053942;28;20418;-88
2022/10/30 00:11:05;;;;;;;;;;;13.50;87.60;;;;;;5053943;28;20346;-88
2022/10/30 00:13:31;;;;;;;;;;;13.50;87.20;;;;;;5053808;28;20067;-88
2022/10/30 00:15:56;;;;;;;;;;;13.50;86.70;;;;;;5053769;28;19985;-88
2022/10/30 00:18:22;;;;;;;;;;;13.50;86.60;;;;;;5067140;28;20027;-89
2022/10/30 00:20:47;;;;;;;;;;;13.40;86.50;;;;;;5073034;28;20313;-88
2022/10/30 00:23:13;;;;;;;;;;;13.40;86.50;;;;;;5073637;28;20363;-88
2022/10/30 00:25:39;;;;;;;;;;;13.40;87.00;;;;;;5073599;28;20025;-88
2022/10/30 00:28:05;;;;;;;;;;;13.40;87.80;;;;;;5073543;28;19943;-88
2022/10/30 00:30:30;;;;;;;;;;;13.20;87.10;;;;;;5073408;28;19975;-88
2022/10/30 00:32:56;;;;;;;;;;;13.10;86.80;;;;;;5073619;28;20444;-88
2022/10/30 00:35:21;;;;;;;;;;;13.00;87.70;;;;;;5073488;28;19983;-88
2022/10/30 00:37:47;;;;;;;;;;;12.90;87.70;;;;;;5073389;28;20396;-88
2022/10/30 00:40:14;;;;;;;;;;;12.80;87.80;;;;;;5071473;28;19944;-88
2022/10/30 00:42:39;;;;;;;;;;;12.70;88.00;;;;;;5051388;28;20413;-87
2022/10/30 00:45:05;;;;;;;;;;;12.60;88.40;;;;;;5053338;28;19948;-88
2022/10/30 00:47:33;;;;;;;;;;;12.60;89.20;;;;;;5053326;28;19948;-88
2022/10/30 00:50:14;;;;;;;;;;;12.50;89.60;;;;;;5052377;28;19947;-88
2022/10/30 00:52:41;;;;;;;;;;;12.50;90.20;;;;;;5052924;28;19970;-88
2022/10/30 00:55:16;;;;;;;;;;;12.50;90.40;;;;;;5053176;28;20383;-88
2022/10/30 00:57:41;;;;;;;;;;;12.40;91.00;;;;;;5053163;28;19943;-88
2022/10/30 01:00:08;;;;;;;;;;;12.50;91.40;;;;;;5051827;28;19945;-88
2022/10/30 01:02:33;;;;;;;;;;;12.60;91.30;;;;;;5053001;28;20359;-88
2022/10/30 01:04:59;;;;;;;;;;;12.60;91.00;;;;;;5053102;28;19938;-88
2022/10/30 01:07:25;;;;;;;;;;;12.60;90.50;;;;;;5054276;28;19958;-88
2022/10/30 01:09:51;;;;;;;;;;;12.60;90.10;;;;;;5053008;28;20323;-88
2022/10/30 01:12:16;;;;;;;;;;;12.60;90.00;;;;;;5052863;28;19969;-87
2022/10/30 01:14:48;;;;;;;;;;;12.50;90.10;;;;;;5053008;28;19943;-89
2022/10/30 01:17:32;;;;;;;;;;;12.60;90.80;;;;;;5053077;28;19979;-88
2022/10/30 01:20:06;;;;;;;;;;;12.50;90.60;;;;;;5053219;28;19973;-88
2022/10/30 01:22:32;;;;;;;;;;;12.50;90.90;;;;;;5052921;28;19940;-88
2022/10/30 01:25:16;;;;;;;;;;;12.40;91.30;;;;;;5052878;28;19947;-89
2022/10/30 01:28:00;;;;;;;;;;;12.60;90.50;;;;;;5051931;28;19945;-88
2022/10/30 01:30:31;;;;;;;;;;;12.60;89.50;;;;;;5052642;28;19982;-88
2022/10/30 01:33:06;;;;;;;;;;;12.60;89.00;;;;;;5052771;28;19969;-89
2022/10/30 01:35:31;;;;;;;;;;;12.70;89.30;;;;;;5053156;28;19948;-88
2022/10/30 01:38:02;;;;;;;;;;;12.70;88.80;;;;;;5052761;28;19955;-88
2022/10/30 01:40:28;;;;;;;;;;;12.80;89.80;;;;;;5053062;28;20022;-88
2022/10/30 01:42:54;;;;;;;;;;;12.80;90.40;;;;;;5052759;28;20428;-88
2022/10/30 01:45:20;;;;;;;;;;;12.80;91.20;;;;;;5053277;28;19947;-88
2022/10/30 01:47:55;;;;;;;;;;;12.80;90.70;;;;;;5072711;28;19960;-88
2022/10/30 01:50:31;;;;;;;;;;;12.80;91.50;;;;;;5072694;28;19941;-88
2022/10/30 01:53:06;;;;;;;;;;;12.80;91.90;;;;;;5071231;28;20019;-88
2022/10/30 01:55:31;;;;;;;;;;;12.80;92.20;;;;;;5072682;28;19944;-88
2022/10/30 01:58:17;;;;;;;;;;;12.80;92.20;;;;;;5072617;28;20303;-88
2022/10/30 02:00:44;;;;;;;;;;;12.70;92.00;;;;;;5073294;28;20087;-88
2022/10/30 02:03:10;;;;;;;;;;;12.70;91.80;;;;;;5075083;28;19941;-88
2022/10/30 02:05:38;;;;;;;;;;;12.80;91.90;;;;;;5076263;28;19985;-89
2022/10/30 02:08:04;;;;;;;;;;;12.80;91.50;;;;;;5076215;28;19945;-88
2022/10/30 02:10:30;;;;;;;;;;;12.70;91.10;;;;;;5076174;28;19941;-88
2022/10/30 02:12:56;;;;;;;;;;;12.70;90.00;;;;;;5060367;28;19965;-89
2022/10/30 02:15:21;;;;;;;;;;;12.80;90.00;;;;;;5056030;28;19937;-88
2022/10/30 02:17:47;;;;;;;;;;;12.70;90.10;;;;;;5056045;28;19948;-88
2022/10/30 02:20:17;;;;;;;;;;;12.70;89.40;;;;;;5055929;28;19949;-88
2022/10/30 02:22:42;;;;;;;;;;;12.70;89.30;;;;;;5056225;28;19946;-88
2022/10/30 02:25:08;;;;;;;;;;;12.70;89.00;;;;;;5055916;28;19948;-88
2022/10/30 02:27:33;;;;;;;;;;;12.70;88.80;;;;;;5055856;28;20018;-88
2022/10/30 02:29:59;;;;;;;;;;;12.60;88.70;;;;;;5055547;28;19975;-88
2022/10/30 02:32:24;;;;;;;;;;;12.60;88.00;;;;;;5055649;28;19967;-88
2022/10/30 02:34:50;;;;;;;;;;;12.60;88.20;;;;;;5055753;28;20395;-88
2022/10/30 02:37:16;;;;;;;;;;;12.60;88.20;;;;;;5059027;28;19950;-88
2022/10/30 02:39:41;;;;;;;;;;;12.60;88.20;;;;;;5075290;28;19951;-89
2022/10/30 02:42:07;;;;;;;;;;;12.60;88.00;;;;;;5075548;28;19938;-88
2022/10/30 02:44:32;;;;;;;;;;;12.60;88.50;;;;;;5075522;28;20027;-89
2022/10/30 02:46:58;;;;;;;;;;;12.50;87.90;;;;;;5075493;28;19966;-88
2022/10/30 02:49:23;;;;;;;;;;;12.40;87.30;;;;;;5075445;28;19940;-88
2022/10/30 02:51:49;;;;;;;;;;;12.30;86.70;;;;;;5075189;28;19951;-88
2022/10/30 02:54:14;;;;;;;;;;;12.30;86.50;;;;;;5075346;28;19974;-88
2022/10/30 02:56:40;;;;;;;;;;;12.30;87.00;;;;;;5075334;28;19946;-88
2022/10/30 02:59:05;;;;;;;;;;;12.40;86.70;;;;;;5075288;28;19946;-88
2022/10/30 03:01:31;;;;;;;;;;;12.40;87.00;;;;;;5073512;28;20003;-88
2022/10/30 03:03:56;;;;;;;;;;;12.40;86.90;;;;;;5074852;28;19948;-88
2022/10/30 03:06:22;;;;;;;;;;;12.40;88.10;;;;;;5075133;28;20340;-88
2022/10/30 03:08:48;;;;;;;;;;;12.40;88.50;;;;;;5075106;28;19945;-88
2022/10/30 03:11:14;;;;;;;;;;;12.40;88.30;;;;;;5074958;28;20415;-88
2022/10/30 03:13:41;;;;;;;;;;;12.30;87.90;;;;;;5074096;28;19963;-88
2022/10/30 03:16:07;;;;;;;;;;;12.10;87.60;;;;;;5073376;28;19954;-88
2022/10/30 03:18:33;;;;;;;;;;;12.10;88.20;;;;;;5074916;28;19937;-89
2022/10/30 03:21:00;;;;;;;;;;;12.10;88.90;;;;;;5074815;28;19989;-88
2022/10/30 03:23:26;;;;;;;;;;;12.20;88.80;;;;;;5074844;28;19990;-88
2022/10/30 03:25:53;;;;;;;;;;;12.30;88.90;;;;;;5058109;28;20038;-88
2022/10/30 03:28:19;;;;;;;;;;;12.30;89.10;;;;;;5054966;28;19952;-87
2022/10/30 03:30:44;;;;;;;;;;;12.30;89.00;;;;;;5054498;28;20350;-87
2022/10/30 03:33:10;;;;;;;;;;;12.20;89.10;;;;;;5053249;28;20023;-87
2022/10/30 03:35:35;;;;;;;;;;;12.20;89.70;;;;;;5054530;28;19939;-88
2022/10/30 03:38:01;;;;;;;;;;;12.20;89.40;;;;;;5054481;28;19941;-89
2022/10/30 03:40:26;;;;;;;;;;;12.20;89.40;;;;;;5054420;28;19947;-88
2022/10/30 03:42:52;;;;;;;;;;;12.20;89.10;;;;;;5054425;28;19939;-88
2022/10/30 03:45:17;;;;;;;;;;;12.20;88.80;;;;;;5054308;28;19943;-88
2022/10/30 03:47:43;;;;;;;;;;;12.20;88.60;;;;;;5054270;28;19938;-88
2022/10/30 03:50:09;;;;;;;;;;;12.10;87.90;;;;;;5058129;28;19980;-88
2022/10/30 03:52:34;;;;;;;;;;;12.00;87.20;;;;;;5073593;28;19993;-88
2022/10/30 03:55:00;;;;;;;;;;;12.10;86.90;;;;;;5074121;28;19992;-88
2022/10/30 03:57:25;;;;;;;;;;;12.20;87.10;;;;;;5074049;28;20306;-88
2022/10/30 03:59:51;;;;;;;;;;;12.20;86.70;;;;;;5074074;28;20454;-88
2022/10/30 04:02:16;;;;;;;;;;;12.00;86.90;;;;;;5074032;28;19985;-88
2022/10/30 04:04:42;;;;;;;;;;;12.00;87.50;;;;;;5073962;28;19984;-87
2022/10/30 04:07:07;;;;;;;;;;;12.00;87.60;;;;;;5073850;28;20022;-88
2022/10/30 04:09:33;;;;;;;;;;;12.00;88.00;;;;;;5073850;28;20043;-88
2022/10/30 04:11:58;;;;;;;;;;;11.90;87.70;;;;;;5073743;28;19954;-88
2022/10/30 04:14:24;;;;;;;;;;;11.90;87.40;;;;;;5059412;28;20429;-88
2022/10/30 04:16:49;;;;;;;;;;;12.00;87.10;;;;;;5054034;28;20031;-88
2022/10/30 04:19:15;;;;;;;;;;;12.00;87.00;;;;;;5053724;28;20362;-88
2022/10/30 04:21:42;;;;;;;;;;;12.00;87.20;;;;;;5052403;28;19943;-87
2022/10/30 04:24:08;;;;;;;;;;;11.90;87.30;;;;;;5053463;28;19943;-88
2022/10/30 04:26:34;;;;;;;;;;;11.90;87.40;;;;;;5053606;28;20409;-88
2022/10/30 04:29:00;;;;;;;;;;;11.90;87.30;;;;;;5053356;28;19976;-88
2022/10/30 04:31:25;;;;;;;;;;;11.90;88.10;;;;;;5053490;28;19943;-88
2022/10/30 04:33:51;;;;;;;;;;;11.80;88.10;;;;;;5053386;28;19963;-88
2022/10/30 04:36:17;;;;;;;;;;;11.70;86.50;;;;;;5053442;28;19941;-88
2022/10/30 04:38:43;;;;;;;;;;;11.80;86.90;;;;;;5055193;28;19938;-88
2022/10/30 04:41:08;;;;;;;;;;;11.80;87.30;;;;;;5073404;28;19940;-88
2022/10/30 04:43:34;;;;;;;;;;;11.70;87.40;;;;;;5073327;28;19982;-88
2022/10/30 04:46:03;;;;;;;;;;;11.80;87.30;;;;;;5073600;28;19948;-88
2022/10/30 04:48:28;;;;;;;;;;;11.70;87.10;;;;;;5072991;28;19945;-88
2022/10/30 04:50:57;;;;;;;;;;;11.70;87.00;;;;;;5073168;28;19948;-88
2022/10/30 04:53:22;;;;;;;;;;;11.70;86.90;;;;;;5073078;28;20049;-88
2022/10/30 04:55:51;;;;;;;;;;;11.70;86.60;;;;;;5073178;28;20358;-88
2022/10/30 04:58:17;;;;;;;;;;;11.60;86.30;;;;;;5073171;28;19946;-88
2022/10/30 05:00:42;;;;;;;;;;;11.50;85.70;;;;;;5073169;28;19940;-88
2022/10/30 05:03:09;;;;;;;;;;;11.40;86.40;;;;;;5073085;28;20048;-88
2022/10/30 05:05:35;;;;;;;;;;;11.30;86.90;;;;;;5061634;28;20338;-88
2022/10/30 05:08:00;;;;;;;;;;;11.20;88.40;;;;;;5053005;28;19956;-88
2022/10/30 05:10:26;;;;;;;;;;;11.20;90.40;;;;;;5052942;28;19949;-88
2022/10/30 05:12:52;;;;;;;;;;;11.20;90.50;;;;;;5051675;28;20063;-88
2022/10/30 05:15:18;;;;;;;;;;;11.30;91.20;;;;;;5053011;28;19939;-88
2022/10/30 05:17:44;;;;;;;;;;;11.40;91.10;;;;;;5052967;28;19937;-88
2022/10/30 05:20:09;;;;;;;;;;;11.40;91.20;;;;;;5052833;28;20391;-88
2022/10/30 05:22:35;;;;;;;;;;;11.50;91.00;;;;;;5052961;28;19946;-88
2022/10/30 05:25:00;;;;;;;;;;;11.60;90.90;;;;;;5052890;28;20031;-88
2022/10/30 05:27:26;;;;;;;;;;;11.70;90.40;;;;;;5052898;28;19983;-88
2022/10/30 05:29:51;;;;;;;;;;;11.70;89.80;;;;;;5052648;28;19979;-88
2022/10/30 05:32:17;;;;;;;;;;;11.70;89.20;;;;;;5071286;28;19944;-88
2022/10/30 05:34:43;;;;;;;;;;;11.70;88.90;;;;;;5072842;28;19943;-89
2022/10/30 05:37:08;;;;;;;;;;;11.70;88.90;;;;;;5076507;28;19940;-88
2022/10/30 05:39:34;;;;;;;;;;;11.70;88.80;;;;;;5076752;28;19942;-88
2022/10/30 05:41:59;;;;;;;;;;;11.70;88.70;;;;;;5076724;28;19942;-87
2022/10/30 05:44:25;;;;;;;;;;;11.70;88.80;;;;;;5076704;28;19965;-88
2022/10/30 05:46:50;;;;;;;;;;;11.50;88.50;;;;;;5076652;28;20038;-88
2022/10/30 05:49:16;;;;;;;;;;;11.40;88.60;;;;;;5076522;28;20041;-88
2022/10/30 05:51:42;;;;;;;;;;;11.40;86.50;;;;;;5076328;28;19958;-88
2022/10/30 05:54:08;;;;;;;;;;;11.40;86.80;;;;;;5076653;28;20310;-88
2022/10/30 05:56:33;;;;;;;;;;;11.40;87.10;;;;;;5069943;28;20385;-87
2022/10/30 05:58:59;;;;;;;;;;;11.40;87.20;;;;;;5056364;28;19944;-88
2022/10/30 06:01:24;;;;;;;;;;;11.40;88.30;;;;;;5057304;28;19954;-88
2022/10/30 06:03:50;;;;;;;;;;;11.40;88.60;;;;;;5056241;28;20318;-88
2022/10/30 06:06:15;;;;;;;;;;;11.50;89.20;;;;;;5056388;28;19945;-88
2022/10/30 06:08:41;;;;;;;;;;;11.60;89.50;;;;;;5056211;28;20420;-88
2022/10/30 06:11:06;;;;;;;;;;;11.60;89.10;;;;;;5056180;28;20453;-87
2022/10/30 06:13:32;;;;;;;;;;;11.50;88.50;;;;;;5056039;28;20411;-88
2022/10/30 06:15:57;;;;;;;;;;;11.40;88.00;;;;;;5056031;28;20098;-88
2022/10/30 06:18:23;;;;;;;;;;;11.40;87.80;;;;;;5074836;28;19944;-88
2022/10/30 06:20:49;;;;;;;;;;;11.40;87.60;;;;;;5075997;28;19936;-88
2022/10/30 06:23:14;;;;;;;;;;;11.40;87.60;;;;;;5075958;28;19935;-87
2022/10/30 06:25:40;;;;;;;;;;;11.50;87.60;;;;;;5075832;28;19941;-88
2022/10/30 06:28:05;;;;;;;;;;;11.60;87.60;;;;;;5058748;28;19939;-88
2022/10/30 06:30:32;;;;;;;;;;;11.60;88.20;;;;;;5100065;22;20432;-88
2022/10/30 06:32:59;;;;;;;;;;;11.60;88.60;;;;;;5095932;28;19957;-88
2022/10/30 06:35:25;;;;;;;;;;;11.70;88.70;;;;;;5095815;28;19948;-88
2022/10/30 06:37:52;;;;;;;;;;;11.70;89.00;;;;;;5095385;28;19940;-87
2022/10/30 06:40:17;;;;;;;;;;;11.60;88.70;;;;;;5095825;28;19994;-88
2022/10/30 06:42:47;;;;;;;;;;;11.60;88.60;;;;;;5095837;28;19940;-88
2022/10/30 06:45:14;;;;;;;;;;;11.70;88.70;;;;;;5095781;28;20040;-88
2022/10/30 06:47:39;;;;;;;;;;;11.80;88.50;;;;;;5094037;28;20408;-88
2022/10/30 06:50:06;;;;;;;;;;;11.90;88.70;;;;;;5095672;28;19948;-88
2022/10/30 06:52:31;;;;;;;;;;;11.90;88.90;;;;;;5095602;28;19969;-88
2022/10/30 06:54:57;;;;;;;;;;;11.90;89.20;;;;;;5095572;28;19946;-88
2022/10/30 06:57:22;;;;;;;;;;;12.00;89.50;;;;;;5067057;28;19986;-88
2022/10/30 06:59:48;;;;;;;;;;;12.10;89.30;;;;;;5075215;28;19954;-88
2022/10/30 07:02:13;;;;;;;;;;;12.20;89.30;;;;;;5075271;28;19941;-88
2022/10/30 07:04:39;;;;;;;;;;;12.30;89.50;;;;;;5075133;28;19940;-88
2022/10/30 07:07:05;;;;;;;;;;;12.40;89.60;;;;;;5082240;28;19947;-87
2022/10/30 07:09:30;;;;;;;;;;;12.40;89.50;;;;;;5095033;28;19947;-88
2022/10/30 07:11:56;;;;;;;;;;;12.60;89.80;;;;;;5095280;28;19938;-88
2022/10/30 07:14:21;;;;;;;;;;;12.60;89.80;;;;;;5095197;28;20555;-88
2022/10/30 07:16:47;;;;;;;;;;;12.70;89.80;;;;;;5090240;28;20430;-88
2022/10/30 07:19:12;;;;;;;;;;;12.90;90.00;;;;;;5074857;28;19952;-87
2022/10/30 07:21:38;;;;;;;;;;;12.90;90.00;;;;;;5074851;28;19941;-88
2022/10/30 07:24:03;;;;;;;;;;;13.00;90.20;;;;;;5074832;28;19947;-88
2022/10/30 07:26:29;;;;;;;;;;;13.10;90.20;;;;;;5076301;28;19941;-88
2022/10/30 07:28:55;;;;;;;;;;;13.10;90.20;;;;;;5094777;28;19977;-88
2022/10/30 07:31:20;;;;;;;;;;;13.30;90.40;;;;;;5094876;28;20352;-89
2022/10/30 07:33:46;;;;;;;;;;;13.30;90.50;;;;;;5094737;28;20410;-88
2022/10/30 07:36:11;;;;;;;;;;;13.30;90.60;;;;;;5094798;28;20455;-88
2022/10/30 07:38:37;;;;;;;;;;;13.40;90.70;;;;;;5075053;28;20414;-88
2022/10/30 07:41:02;;;;;;;;;;;13.60;90.70;;;;;;5074496;28;20339;-88
2022/10/30 07:43:28;;;;;;;;;;;13.60;90.60;;;;;;5056849;28;19941;-88
2022/10/30 07:45:54;;;;;;;;;;;13.80;91.30;;;;;;5076112;28;19940;-87
2022/10/30 07:48:19;;;;;;;;;;;13.90;91.50;;;;;;5094574;28;19959;-88
2022/10/30 07:50:45;;;;;;;;;;;13.90;91.70;;;;;;5094456;28;20402;-88
2022/10/30 07:53:11;;;;;;;;;;;14.00;91.80;;;;;;5094269;28;20414;-88
2022/10/30 07:55:36;;;;;;;;;;;14.00;92.10;;;;;;5075790;28;20412;-88
2022/10/30 07:58:02;;;;;;;;;;;14.10;91.90;;;;;;5073403;28;19937;-88
2022/10/30 08:00:27;;;;;;;;;;;14.10;91.80;;;;;;5069319;28;20384;-88
2022/10/30 08:02:55;;;;;;;;;;;14.20;91.90;;;;;;5068069;28;20488;-88
2022/10/30 08:05:20;;;;;;;;;;;14.30;91.90;;;;;;5089740;28;19969;-88
2022/10/30 08:07:46;;;;;;;;;;;14.40;91.60;;;;;;5094195;28;20386;-88
2022/10/30 08:10:12;;;;;;;;;;;14.40;91.50;;;;;;5094108;28;19947;-88
2022/10/30 08:12:39;;;;;;;;;;;14.60;91.10;;;;;;5093870;28;19960;-88
2022/10/30 08:15:05;;;;;;;;;;;14.60;90.70;;;;;;5080255;28;19946;-88
2022/10/30 08:17:31;;;;;;;;;;;14.80;90.50;;;;;;5055830;28;20023;-88
2022/10/30 08:19:56;;;;;;;;;;;14.80;89.90;;;;;;5073691;28;20421;-88
2022/10/30 08:22:22;;;;;;;;;;;15.00;88.10;;;;;;5073613;28;19937;-88
2022/10/30 08:24:47;;;;;;;;;;;15.10;87.80;;;;;;5074056;28;19974;-88
2022/10/30 08:27:13;;;;;;;;;;;15.20;87.60;;;;;;5073592;28;19942;-88
2022/10/30 08:29:38;;;;;;;;;;;15.30;87.40;;;;;;5073454;28;20452;-88
2022/10/30 08:32:05;;;;;;;;;;;15.40;87.50;;;;;;5073545;28;20456;-88
2022/10/30 08:34:31;;;;;;;;;;;15.60;87.50;;;;;;5081525;28;19960;-88
2022/10/30 08:36:57;;;;;;;;;;;15.70;87.70;;;;;;5093678;28;19962;-88
2022/10/30 08:39:22;;;;;;;;;;;15.80;87.80;;;;;;5093620;28;19959;-89
2022/10/30 08:41:48;;;;;;;;;;;15.90;87.60;;;;;;5093610;28;20007;-88
2022/10/30 08:44:13;;;;;;;;;;;16.00;87.50;;;;;;5087494;28;19942;-88
2022/10/30 08:46:39;;;;;;;;;;;16.10;87.20;;;;;;5073291;28;19945;-88
2022/10/30 08:49:04;;;;;;;;;;;16.10;87.00;;;;;;5073284;28;19951;-88
2022/10/30 08:51:33;;;;;;;;;;;16.30;86.50;;;;;;5073057;28;19955;-89
2022/10/30 08:53:59;;;;;;;;;;;16.30;86.20;;;;;;5076485;28;19964;-88
2022/10/30 08:56:25;;;;;;;;;;;16.50;85.30;;;;;;5093433;28;20007;-89
2022/10/30 08:58:50;;;;;;;;;;;16.60;85.30;;;;;;5093357;28;19939;-88
2022/10/30 09:01:17;;;;;;;;;;;16.70;85.30;;;;;;5093375;28;19984;-88
2022/10/30 09:03:43;;;;;;;;;;;16.80;84.70;;;;;;5092203;28;19991;-88
2022/10/30 09:06:09;;;;;;;;;;;17.00;84.30;;;;;;5073076;28;19944;-89
2022/10/30 09:08:34;;;;;;;;;;;17.10;84.00;;;;;;5073082;28;20422;-88
2022/10/30 09:11:00;;;;;;;;;;;17.20;83.60;;;;;;5072447;28;19947;-88
2022/10/30 09:13:26;;;;;;;;;;;17.40;83.20;;;;;;5072997;28;20027;-88
2022/10/30 09:15:51;;;;;;;;;;;17.50;82.10;;;;;;5074988;28;20035;-88
2022/10/30 09:18:17;;;;;;;;;;;17.60;81.30;;;;;;5074736;28;19956;-89
2022/10/30 09:20:43;;;;;;;;;;;17.70;80.40;;;;;;5072984;28;20334;-88
2022/10/30 09:23:08;;;;;;;;;;;17.80;80.60;;;;;;5072950;28;19962;-88
2022/10/30 09:25:34;;;;;;;;;;;17.80;80.70;;;;;;5073374;28;19944;-88
2022/10/30 09:27:59;;;;;;;;;;;18.00;80.10;;;;;;5072878;28;19944;-88
2022/10/30 09:30:25;;;;;;;;;;;18.10;79.50;;;;;;5072688;28;20357;-88
2022/10/30 09:32:58;;;;;;;;;;;18.10;78.50;;;;;;5072757;28;20059;-88
2022/10/30 09:35:23;;;;;;;;;;;18.30;78.60;;;;;;5090633;28;19942;-88
2022/10/30 09:37:49;;;;;;;;;;;18.40;78.00;;;;;;5092955;28;20398;-89
2022/10/30 09:40:23;;;;;;;;;;;18.60;75.80;;;;;;5092971;28;19941;-89
2022/10/30 09:42:49;;;;;;;;;;;18.60;75.70;;;;;;5092956;28;19985;-89
2022/10/30 09:45:35;;;;;;;;;;;18.80;74.20;;;;;;5075859;28;19993;-89
2022/10/30 09:48:01;;;;;;;;;;;18.80;74.50;;;;;;5071968;28;20312;-88
2022/10/30 09:50:44;;;;;;;;;;;19.00;73.60;;;;;;5054683;28;19941;-88
2022/10/30 09:53:29;;;;;;;;;;;19.10;73.70;;;;;;5072484;28;19961;-89
2022/10/30 09:56:07;;;;;;;;;;;19.20;74.00;;;;;;5058455;28;19941;-89
2022/10/30 09:59:08;;;;;;;;;;;19.30;72.80;;;;;;5072565;28;19995;-88
2022/10/30 10:01:40;;;;;;;;;;;19.40;72.40;;;;;;5010493;28;19968;-88
2022/10/30 10:04:08;;;;;;;;;;;19.60;71.80;;;;;;5068656;28;20040;-88
2022/10/30 10:06:36;;;;;;;;;;;19.70;71.80;;;;;;5092646;28;19936;-89
2022/10/30 10:09:04;;;;;;;;;;;19.80;71.10;;;;;;5074390;28;19937;-88
2022/10/30 10:11:38;;;;;;;;;;;19.80;70.80;;;;;;5092644;28;20412;-88
2022/10/30 10:14:16;;;;;;;;;;;19.90;70.10;;;;;;5086190;28;19958;-88
2022/10/30 10:16:44;;;;;;;;;;;20.10;68.00;;;;;;5072432;28;20032;-89
2022/10/30 10:19:27;;;;;;;;;;;20.20;69.50;;;;;;5072382;28;19945;-89
2022/10/30 10:22:00;;;;;;;;;;;20.30;68.80;;;;;;5073766;28;19947;-89
2022/10/30 10:24:25;;;;;;;;;;;20.40;67.60;;;;;;5081617;28;19955;-89
2022/10/30 10:27:11;;;;;;;;;;;20.50;67.30;;;;;;5096128;28;20021;-89
2022/10/30 10:29:49;;;;;;;;;;;20.60;67.20;;;;;;5095895;28;19970;-88
2022/10/30 10:32:27;;;;;;;;;;;20.70;65.50;;;;;;5095845;28;20399;-89
2022/10/30 10:35:01;;;;;;;;;;;20.90;65.40;;;;;;5083346;28;19949;-89
2022/10/30 10:37:32;;;;;;;;;;;21.00;64.90;;;;;;5075680;28;19948;-89
2022/10/30 10:40:07;;;;;;;;;;;21.20;63.80;;;;;;5075625;28;19943;-88
2022/10/30 10:42:46;;;;;;;;;;;21.30;63.50;;;;;;5057589;28;19950;-89
2022/10/30 10:45:30;;;;;;;;;;;21.50;62.90;;;;;;5071792;28;19956;-88
2022/10/30 10:48:14;;;;;;;;;;;21.70;62.80;;;;;;5095233;28;20073;-89
2022/10/30 10:50:57;;;;;;;;;;;21.80;62.90;;;;;;5095284;28;19938;-89
2022/10/30 10:53:28;;;;;;;;;;;21.90;61.50;;;;;;5095592;28;20012;-88
2022/10/30 10:55:57;;;;;;;;;;;22.00;61.10;;;;;;5055339;28;19975;-88
2022/10/30 10:58:29;;;;;;;;;;;21.90;61.60;;;;;;5055336;28;19943;-89
2022/10/30 11:00:56;;;;;;;;;;;22.00;60.70;;;;;;5055261;28;19991;-89
2022/10/30 11:03:26;;;;;;;;;;;22.30;60.60;;;;;;5055186;28;19936;-89
2022/10/30 11:06:01;;;;;;;;;;;22.50;60.30;;;;;;5094494;28;19941;-89
2022/10/30 11:08:31;;;;;;;;;;;22.80;59.10;;;;;;5095507;28;19949;-89
2022/10/30 11:11:01;;;;;;;;;;;23.10;59.40;;;;;;5095265;28;19943;-89
2022/10/30 11:13:28;;;;;;;;;;;23.30;57.60;;;;;;5095166;28;19965;-90
2022/10/30 11:15:57;;;;;;;;;;;23.50;57.60;;;;;;5094579;28;19997;-89
2022/10/30 11:18:22;;;;;;;;;;;23.70;56.20;;;;;;5095198;28;19946;-89
2022/10/30 11:20:51;;;;;;;;;;;23.90;56.20;;;;;;5095178;28;19938;-89
2022/10/30 11:23:49;;;;;;;;;;;24.10;54.90;;;;;;5095063;28;20093;-89
2022/10/30 11:26:17;;;;;;;;;;;24.30;54.90;;;;;;5049913;28;20004;-89
2022/10/30 11:29:03;;;;;;;;;;;24.50;54.60;;;;;;5094806;28;19979;-89
2022/10/30 11:31:33;;;;;;;;;;;24.60;53.60;;;;;;5094909;28;19941;-89
2022/10/30 11:34:14;;;;;;;;;;;24.80;53.20;;;;;;5090027;28;20007;-89
2022/10/30 11:36:39;;;;;;;;;;;24.80;52.60;;;;;;5074606;28;19990;-89
2022/10/30 11:39:08;;;;;;;;;;;25.00;52.20;;;;;;5074543;28;19940;-89
2022/10/30 11:41:34;;;;;;;;;;;25.20;51.70;;;;;;5074453;28;19941;-89
2022/10/30 11:43:59;;;;;;;;;;;25.70;51.00;;;;;;5077755;28;19942;-90
2022/10/30 11:46:25;;;;;;;;;;;26.10;49.50;;;;;;5077625;28;20330;-89
2022/10/30 11:48:53;;;;;;;;;;;26.70;48.50;;;;;;5094572;28;19935;-89
2022/10/30 11:51:38;;;;;;;;;;;27.00;49.10;;;;;;5094230;28;20329;-89
2022/10/30 11:54:04;;;;;;;;;;;27.00;49.20;;;;;;5089891;28;19964;-89
2022/10/30 11:56:30;;;;;;;;;;;27.30;49.70;;;;;;5074135;28;19936;-89
2022/10/30 11:58:57;;;;;;;;;;;27.60;48.10;;;;;;5074055;28;20077;-89
2022/10/30 12:01:24;;;;;;;;;;;27.80;47.70;;;;;;5074000;28;20304;-89
2022/10/30 12:03:50;;;;;;;;;;;27.90;47.80;;;;;;5056397;28;19947;-89
2022/10/30 12:06:24;;;;;;;;;;;27.90;46.30;;;;;;5073997;28;19947;-89
2022/10/30 12:08:59;;;;;;;;;;;28.10;46.50;;;;;;5073887;28;19995;-90
2022/10/30 12:11:32;;;;;;;;;;;28.80;44.50;;;;;;5073897;28;19991;-89
2022/10/30 12:13:58;;;;;;;;;;;29.00;44.20;;;;;;5076093;28;19964;-89
2022/10/30 12:16:25;;;;;;;;;;;29.30;42.60;;;;;;5093831;28;20402;-89
2022/10/30 12:19:14;;;;;;;;;;;29.90;42.80;;;;;;5093909;28;20397;-89
2022/10/30 12:22:00;;;;;;;;;;;30.20;42.90;;;;;;5093977;28;19939;-89
2022/10/30 12:24:25;;;;;;;;;;;30.50;41.90;;;;;;5086826;28;20043;-89
2022/10/30 12:26:53;;;;;;;;;;;30.30;41.50;;;;;;5073613;28;19978;-89
2022/10/30 12:29:21;;;;;;;;;;;30.00;41.60;;;;;;5073393;28;19983;-89
2022/10/30 12:31:53;;;;;;;;;;;29.90;41.80;;;;;;5073530;28;20473;-89
2022/10/30 12:34:19;;;;;;;;;;;30.20;42.00;;;;;;5078562;28;20007;-89
2022/10/30 12:36:48;;;;;;;;;;;30.40;40.80;;;;;;5093719;28;19986;-89
2022/10/30 12:39:26;;;;;;;;;;;30.40;40.30;;;;;;5093715;28;19941;-89
2022/10/30 12:42:22;;;;;;;;;;;30.50;41.20;;;;;;5093683;28;19979;-89
2022/10/30 12:44:50;;;;;;;;;;;30.00;40.60;;;;;;5067394;28;19991;-89
2022/10/30 12:47:25;;;;;;;;;;;30.00;41.00;;;;;;5073254;28;19939;-89
2022/10/30 12:49:52;;;;;;;;;;;30.00;40.10;;;;;;5073313;28;19951;-89
2022/10/30 12:52:30;;;;;;;;;;;29.90;41.00;;;;;;5073071;28;19951;-89
2022/10/30 12:55:14;;;;;;;;;;;30.00;39.80;;;;;;5082749;28;20029;-89
2022/10/30 12:57:42;;;;;;;;;;;30.50;39.00;;;;;;5093369;28;19940;-90
2022/10/30 13:00:14;;;;;;;;;;;30.90;38.30;;;;;;5093402;28;19989;-89
2022/10/30 13:02:43;;;;;;;;;;;31.50;37.80;;;;;;5093586;28;19943;-89
2022/10/30 13:05:23;;;;;;;;;;;31.90;36.90;;;;;;5081814;28;19947;-89
2022/10/30 13:08:04;;;;;;;;;;;31.60;37.10;;;;;;5073095;28;19985;-90
2022/10/30 13:10:29;;;;;;;;;;;31.80;37.40;;;;;;5073097;28;19939;-89
2022/10/30 13:13:00;;;;;;;;;;;32.20;36.00;;;;;;5054970;28;20008;-89
2022/10/30 13:15:35;;;;;;;;;;;32.40;36.00;;;;;;5086111;28;19994;-90
2022/10/30 13:18:12;;;;;;;;;;;32.60;35.80;;;;;;5093219;28;19944;-90
2022/10/30 13:20:38;;;;;;;;;;;33.10;34.80;;;;;;5093194;28;19981;-89
2022/10/30 13:23:18;;;;;;;;;;;32.40;35.20;;;;;;5093156;28;19939;-89
2022/10/30 13:25:43;;;;;;;;;;;32.50;35.00;;;;;;5077375;28;19943;-89
2022/10/30 13:28:32;;;;;;;;;;;32.70;35.10;;;;;;5072822;28;19946;-89
2022/10/30 13:31:06;;;;;;;;;;;32.40;35.10;;;;;;5072858;28;19953;-90
2022/10/30 13:33:38;;;;;;;;;;;32.70;34.70;;;;;;5072806;28;20055;-90
2022/10/30 13:36:21;;;;;;;;;;;33.00;34.40;;;;;;5090708;28;19947;-90
2022/10/30 13:38:56;;;;;;;;;;;34.10;31.80;;;;;;5092674;28;19947;-89
2022/10/30 13:41:25;;;;;;;;;;;34.70;31.20;;;;;;5093014;28;19947;-90
2022/10/30 13:44:03;;;;;;;;;;;35.10;30.50;;;;;;5092946;28;19946;-90
2022/10/30 13:46:47;;;;;;;;;;;34.50;32.60;;;;;;5052700;28;19939;-89
2022/10/30 13:49:13;;;;;;;;;;;33.40;33.50;;;;;;5052660;28;20352;-89
2022/10/30 13:51:44;;;;;;;;;;;33.10;34.30;;;;;;5052463;28;19985;-89
2022/10/30 13:54:17;;;;;;;;;;;32.50;35.10;;;;;;5056379;28;20003;-89
2022/10/30 13:56:43;;;;;;;;;;;32.40;35.30;;;;;;5094375;28;19957;-90
2022/10/30 13:59:31;;;;;;;;;;;32.30;35.90;;;;;;5096731;28;20393;-89
2022/10/30 14:02:02;;;;;;;;;;;32.10;36.70;;;;;;5096018;28;19957;-89
2022/10/30 14:04:28;;;;;;;;;;;31.40;37.70;;;;;;5096582;28;20386;-89
2022/10/30 14:06:59;;;;;;;;;;;31.20;38.70;;;;;;5096560;28;20040;-89
2022/10/30 14:09:42;;;;;;;;;;;31.30;38.60;;;;;;5096526;28;19991;-89
2022/10/30 14:12:26;;;;;;;;;;;31.20;37.90;;;;;;5056170;28;20401;-90
2022/10/30 14:14:51;;;;;;;;;;;31.20;37.90;;;;;;5056101;28;19940;-90
2022/10/30 14:17:17;;;;;;;;;;;31.20;38.10;;;;;;5056101;28;19941;-89
2022/10/30 14:20:01;;;;;;;;;;;31.10;37.70;;;;;;5059185;28;19942;-89
2022/10/30 14:22:27;;;;;;;;;;;31.10;37.70;;;;;;5096171;28;20043;-89
2022/10/30 14:24:52;;;;;;;;;;;31.50;38.10;;;;;;5096232;28;19988;-89